Time;durP1;ratioP1;P1;durP2;ratioP2;P2;SDS_P1;SDS_P2;PMS_P1;PMS_P2;Temp;Humidity;BMP_temperature;BMP_pressure;BME280_temperature;BME280_humidity;BME280_pressure;Samples;Min_cycle;Max_cycle;Signal;HPM_P1;HPM_P2
2022/10/19 00:01:19;;;;;;;;;;;23.90;55.90;;;;;;1508334;77;772;-56
2022/10/19 00:03:21;;;;;;;;;;;23.90;56.00;;;;;;1517751;77;717;-58
2022/10/19 00:05:22;;;;;;;;;;;23.90;55.90;;;;;;1521938;77;1140;-57
2022/10/19 00:07:24;;;;;;;;;;;24.00;55.80;;;;;;1504543;77;777;-58
2022/10/19 00:09:26;;;;;;;;;;;23.90;55.80;;;;;;1504507;77;1533;-57
2022/10/19 00:11:28;;;;;;;;;;;24.00;55.80;;;;;;1505194;78;1927;-57
2022/10/19 00:13:30;;;;;;;;;;;24.00;55.80;;;;;;1515756;77;794;-57
2022/10/19 00:15:32;;;;;;;;;;;24.00;55.80;;;;;;1514297;77;1132;-58
2022/10/19 00:17:34;;;;;;;;;;;24.00;55.80;;;;;;1498233;77;1080;-58
2022/10/19 00:19:36;;;;;;;;;;;24.00;55.70;;;;;;1503197;77;760;-58
2022/10/19 00:21:38;;;;;;;;;;;24.00;55.70;;;;;;1508618;77;730;-57
2022/10/19 00:23:40;;;;;;;;;;;24.00;55.50;;;;;;1493725;77;724;-58
2022/10/19 00:25:42;;;;;;;;;;;24.00;55.50;;;;;;1500732;77;1170;-57
2022/10/19 00:27:44;;;;;;;;;;;24.00;55.50;;;;;;1493490;77;797;-57
2022/10/19 00:29:45;;;;;;;;;;;24.00;55.50;;;;;;1503198;77;705;-57
2022/10/19 00:31:48;;;;;;;;;;;24.10;55.60;;;;;;1515043;77;1941;-56
2022/10/19 00:33:50;;;;;;;;;;;24.00;55.50;;;;;;1503625;77;695;-53
2022/10/19 00:35:52;;;;;;;;;;;24.10;55.50;;;;;;1486932;77;1605;-56
2022/10/19 00:37:54;;;;;;;;;;;24.00;55.50;;;;;;1505347;77;755;-57
2022/10/19 00:39:56;;;;;;;;;;;24.10;55.60;;;;;;1498084;77;734;-56
2022/10/19 00:41:58;;;;;;;;;;;24.00;55.50;;;;;;1497489;77;708;-54
2022/10/19 00:44:04;;;;;;;;;;;24.00;55.50;;;;;;1493078;77;818;-54
2022/10/19 00:46:05;;;;;;;;;;;23.90;55.70;;;;;;1501656;77;1156;-57
2022/10/19 00:48:08;;;;;;;;;;;23.90;56.20;;;;;;1501240;77;730;-57
2022/10/19 00:50:10;;;;;;;;;;;23.90;56.30;;;;;;1492848;77;1518;-57
2022/10/19 00:52:16;;;;;;;;;;;24.00;55.90;;;;;;1490310;78;1937;-57
2022/10/19 00:54:17;;;;;;;;;;;24.00;55.70;;;;;;1504059;77;814;-54
2022/10/19 00:56:19;;;;;;;;;;;23.90;55.70;;;;;;1507801;77;1140;-55
2022/10/19 00:58:21;;;;;;;;;;;23.90;56.00;;;;;;1501985;77;672;-56
2022/10/19 01:00:23;;;;;;;;;;;23.80;56.00;;;;;;1504748;78;788;-53
2022/10/19 01:02:25;;;;;;;;;;;23.70;56.20;;;;;;1507300;77;796;-53
2022/10/19 01:04:27;;;;;;;;;;;23.70;56.40;;;;;;1504653;77;1480;-56
2022/10/19 01:06:29;;;;;;;;;;;23.70;56.40;;;;;;1503198;77;1101;-56
2022/10/19 01:08:31;;;;;;;;;;;23.70;56.60;;;;;;1503813;77;808;-52
2022/10/19 01:10:34;;;;;;;;;;;23.70;56.70;;;;;;1503364;77;704;-56
2022/10/19 01:12:40;;;;;;;;;;;23.60;56.70;;;;;;1502006;77;1947;-53
2022/10/19 01:14:47;;;;;;;;;;;23.60;56.70;;;;;;1501516;77;863;-53
2022/10/19 01:16:53;;;;;;;;;;;23.60;56.80;;;;;;1489934;77;1793;-56
2022/10/19 01:19:02;;;;;;;;;;;23.60;56.80;;;;;;1505361;77;1514;-55
2022/10/19 01:21:22;;;;;;;;;;;23.60;56.80;;;;;;1499234;77;1890;-56
2022/10/19 01:23:32;;;;;;;;;;;23.60;56.90;;;;;;1503216;77;728;-56
2022/10/19 01:25:47;;;;;;;;;;;23.60;56.90;;;;;;1503325;77;1228;-52
2022/10/19 01:28:07;;;;;;;;;;;23.60;57.00;;;;;;1504040;77;1908;-52
2022/10/19 01:30:23;;;;;;;;;;;23.60;57.00;;;;;;1502887;77;786;-54
2022/10/19 01:32:27;;;;;;;;;;;23.60;57.10;;;;;;1461758;78;1922;-56
2022/10/19 01:34:32;;;;;;;;;;;23.50;57.20;;;;;;1507612;77;1956;-54
2022/10/19 01:36:51;;;;;;;;;;;23.60;57.30;;;;;;1502771;77;1179;-55
2022/10/19 01:39:00;;;;;;;;;;;23.60;57.10;;;;;;1503743;77;1838;-57
2022/10/19 01:41:15;;;;;;;;;;;23.50;57.10;;;;;;1501433;77;834;-55
2022/10/19 01:43:19;;;;;;;;;;;23.50;57.20;;;;;;1504398;77;898;-57
2022/10/19 01:45:22;;;;;;;;;;;23.50;57.30;;;;;;1500594;78;1928;-56
2022/10/19 01:47:29;;;;;;;;;;;23.50;57.40;;;;;;1503937;77;1602;-57
2022/10/19 01:49:35;;;;;;;;;;;23.50;57.40;;;;;;1503654;77;728;-57
2022/10/19 01:51:38;;;;;;;;;;;23.50;57.50;;;;;;1492341;77;1950;-56
2022/10/19 01:53:42;;;;;;;;;;;23.60;57.30;;;;;;1502260;77;746;-57
2022/10/19 01:55:44;;;;;;;;;;;23.60;57.20;;;;;;1479613;78;1102;-55
2022/10/19 01:57:46;;;;;;;;;;;23.60;57.20;;;;;;1504274;77;840;-54
2022/10/19 01:59:48;;;;;;;;;;;23.60;57.20;;;;;;1501436;77;738;-57
2022/10/19 02:01:50;;;;;;;;;;;23.60;57.20;;;;;;1498402;77;1508;-52
2022/10/19 02:03:52;;;;;;;;;;;23.60;57.20;;;;;;1501371;77;798;-57
2022/10/19 02:05:54;;;;;;;;;;;23.60;57.30;;;;;;1506075;77;1147;-57
2022/10/19 02:07:57;;;;;;;;;;;23.50;57.30;;;;;;1507860;77;778;-57
2022/10/19 02:09:59;;;;;;;;;;;23.50;57.30;;;;;;1502384;77;779;-57
2022/10/19 02:12:02;;;;;;;;;;;23.60;57.20;;;;;;1503216;78;1935;-56
2022/10/19 02:14:05;;;;;;;;;;;23.50;57.20;;;;;;1508658;77;725;-53
2022/10/19 02:16:08;;;;;;;;;;;23.60;57.30;;;;;;1504085;77;1178;-55
2022/10/19 02:18:12;;;;;;;;;;;23.70;57.20;;;;;;1499459;77;1131;-58
2022/10/19 02:20:14;;;;;;;;;;;23.70;56.90;;;;;;1496832;79;755;-56
2022/10/19 02:22:16;;;;;;;;;;;23.80;56.80;;;;;;1498551;78;759;-56
2022/10/19 02:24:18;;;;;;;;;;;23.80;56.80;;;;;;1498755;79;807;-54
2022/10/19 02:26:20;;;;;;;;;;;23.80;56.70;;;;;;1495330;79;1137;-57
2022/10/19 02:28:22;;;;;;;;;;;23.80;56.60;;;;;;1499079;79;1571;-57
2022/10/19 02:30:24;;;;;;;;;;;23.80;56.60;;;;;;1498511;78;809;-58
2022/10/19 02:32:25;;;;;;;;;;;23.80;56.60;;;;;;1498553;78;1936;-58
2022/10/19 02:34:27;;;;;;;;;;;23.70;56.70;;;;;;1498181;78;832;-58
2022/10/19 02:36:29;;;;;;;;;;;23.70;56.80;;;;;;1498977;78;1170;-58
2022/10/19 02:38:31;;;;;;;;;;;23.70;56.80;;;;;;1498454;78;753;-57
2022/10/19 02:40:34;;;;;;;;;;;23.70;56.70;;;;;;1498138;78;718;-55
2022/10/19 02:42:37;;;;;;;;;;;23.80;56.80;;;;;;1498290;78;1536;-58
2022/10/19 02:44:43;;;;;;;;;;;23.70;56.80;;;;;;1494092;79;1617;-57
2022/10/19 02:46:47;;;;;;;;;;;23.70;56.80;;;;;;1497824;78;1826;-55
2022/10/19 02:48:49;;;;;;;;;;;23.70;56.80;;;;;;1499207;78;808;-58
2022/10/19 02:50:51;;;;;;;;;;;23.70;56.90;;;;;;1496060;79;763;-57
2022/10/19 02:52:53;;;;;;;;;;;23.70;57.00;;;;;;1498825;79;1953;-58
2022/10/19 02:54:55;;;;;;;;;;;23.60;56.90;;;;;;1498387;79;839;-57
2022/10/19 02:56:56;;;;;;;;;;;23.60;56.90;;;;;;1499183;78;1550;-56
2022/10/19 02:58:58;;;;;;;;;;;23.60;56.90;;;;;;1496061;79;812;-54
2022/10/19 03:01:00;;;;;;;;;;;23.60;56.90;;;;;;1498895;78;731;-57
2022/10/19 03:03:02;;;;;;;;;;;23.60;57.00;;;;;;1499241;78;782;-58
2022/10/19 03:05:04;;;;;;;;;;;23.60;57.00;;;;;;1499183;79;730;-58
2022/10/19 03:07:06;;;;;;;;;;;23.60;57.00;;;;;;1498373;78;825;-57
2022/10/19 03:09:08;;;;;;;;;;;23.70;57.30;;;;;;1499210;78;929;-57
2022/10/19 03:11:10;;;;;;;;;;;23.70;57.30;;;;;;1498810;78;1389;-57
2022/10/19 03:13:12;;;;;;;;;;;23.70;57.20;;;;;;1498706;78;1951;-53
2022/10/19 03:15:17;;;;;;;;;;;23.60;57.10;;;;;;1496461;79;1164;-58
2022/10/19 03:17:18;;;;;;;;;;;23.70;57.10;;;;;;1498328;78;704;-56
2022/10/19 03:19:20;;;;;;;;;;;23.70;57.10;;;;;;1497220;78;1049;-58
2022/10/19 03:21:22;;;;;;;;;;;23.60;57.10;;;;;;1497310;79;737;-58
2022/10/19 03:23:24;;;;;;;;;;;23.60;57.10;;;;;;1498929;78;734;-58
2022/10/19 03:25:26;;;;;;;;;;;23.70;57.10;;;;;;1498500;78;1549;-58
2022/10/19 03:27:28;;;;;;;;;;;23.70;57.10;;;;;;1499479;79;799;-58
2022/10/19 03:29:30;;;;;;;;;;;23.70;57.00;;;;;;1499368;78;702;-58
2022/10/19 03:31:31;;;;;;;;;;;23.70;56.90;;;;;;1499469;78;719;-58
2022/10/19 03:33:33;;;;;;;;;;;23.70;56.80;;;;;;1499126;79;765;-58
2022/10/19 03:35:35;;;;;;;;;;;23.70;56.90;;;;;;1496822;78;1169;-58
2022/10/19 03:37:37;;;;;;;;;;;23.70;56.90;;;;;;1499452;79;733;-58
2022/10/19 03:39:39;;;;;;;;;;;23.70;56.90;;;;;;1499587;78;1569;-58
2022/10/19 03:41:41;;;;;;;;;;;23.70;56.90;;;;;;1498918;79;767;-58
2022/10/19 03:43:43;;;;;;;;;;;23.60;56.90;;;;;;1491960;78;778;-58
2022/10/19 03:45:47;;;;;;;;;;;23.70;56.90;;;;;;1497669;79;1099;-58
2022/10/19 03:47:49;;;;;;;;;;;23.70;56.90;;;;;;1499750;78;693;-58
2022/10/19 03:49:51;;;;;;;;;;;23.60;56.80;;;;;;1498510;78;715;-57
2022/10/19 03:51:53;;;;;;;;;;;23.60;56.80;;;;;;1500895;78;1940;-58
2022/10/19 03:53:56;;;;;;;;;;;23.60;56.90;;;;;;1498634;78;1498;-58
2022/10/19 03:56:03;;;;;;;;;;;23.60;57.10;;;;;;1499395;78;1136;-58
2022/10/19 03:58:05;;;;;;;;;;;23.60;57.10;;;;;;1496963;79;1791;-58
2022/10/19 04:00:07;;;;;;;;;;;23.60;57.20;;;;;;1499546;79;727;-58
2022/10/19 04:02:09;;;;;;;;;;;23.60;57.20;;;;;;1499762;79;854;-57
2022/10/19 04:04:15;;;;;;;;;;;23.60;57.30;;;;;;1499192;78;660;-57
2022/10/19 04:06:17;;;;;;;;;;;23.60;57.30;;;;;;1491708;78;1174;-57
2022/10/19 04:08:19;;;;;;;;;;;23.60;57.30;;;;;;1498954;79;1655;-57
2022/10/19 04:10:21;;;;;;;;;;;23.60;57.20;;;;;;1496283;78;719;-57
2022/10/19 04:12:23;;;;;;;;;;;23.60;57.30;;;;;;1494095;78;1934;-55
2022/10/19 04:14:25;;;;;;;;;;;23.60;57.30;;;;;;1499631;78;671;-54
2022/10/19 04:16:27;;;;;;;;;;;23.50;57.30;;;;;;1499070;79;1140;-53
2022/10/19 04:18:29;;;;;;;;;;;23.50;57.40;;;;;;1499501;77;1197;-57
2022/10/19 04:20:31;;;;;;;;;;;23.60;57.40;;;;;;1485986;77;755;-54
2022/10/19 04:22:33;;;;;;;;;;;23.50;57.60;;;;;;1497350;77;1689;-57
2022/10/19 04:24:34;;;;;;;;;;;23.50;57.60;;;;;;1494343;77;783;-57
2022/10/19 04:26:46;;;;;;;;;;;23.50;57.70;;;;;;1516665;77;1205;-57
2022/10/19 04:28:48;;;;;;;;;;;23.50;57.60;;;;;;1514889;77;721;-57
2022/10/19 04:30:50;;;;;;;;;;;23.50;57.70;;;;;;1505889;77;670;-56
2022/10/19 04:32:52;;;;;;;;;;;23.50;57.70;;;;;;1498896;77;1927;-53
2022/10/19 04:34:54;;;;;;;;;;;23.50;57.70;;;;;;1488106;77;1475;-57
2022/10/19 04:36:58;;;;;;;;;;;23.50;57.70;;;;;;1493369;79;1092;-57
2022/10/19 04:38:59;;;;;;;;;;;23.50;57.70;;;;;;1504980;77;1681;-57
2022/10/19 04:41:02;;;;;;;;;;;23.50;57.70;;;;;;1499658;77;793;-56
2022/10/19 04:43:04;;;;;;;;;;;23.50;57.70;;;;;;1501962;77;839;-57
2022/10/19 04:45:06;;;;;;;;;;;23.50;57.80;;;;;;1504065;77;1164;-57
2022/10/19 04:47:07;;;;;;;;;;;23.40;57.60;;;;;;1501494;78;652;-56
2022/10/19 04:49:09;;;;;;;;;;;23.50;57.80;;;;;;1493287;77;1512;-56
2022/10/19 04:51:11;;;;;;;;;;;23.50;57.90;;;;;;1497842;77;721;-53
2022/10/19 04:53:13;;;;;;;;;;;23.50;57.90;;;;;;1504098;77;1930;-57
2022/10/19 04:55:15;;;;;;;;;;;23.50;58.00;;;;;;1509248;77;1149;-57
2022/10/19 04:57:17;;;;;;;;;;;23.60;57.80;;;;;;1501230;77;750;-57
2022/10/19 04:59:19;;;;;;;;;;;23.60;57.60;;;;;;1500587;77;711;-57
2022/10/19 05:01:21;;;;;;;;;;;23.60;57.60;;;;;;1508789;77;774;-56
2022/10/19 05:03:23;;;;;;;;;;;23.60;57.60;;;;;;1506954;78;1526;-55
2022/10/19 05:05:25;;;;;;;;;;;23.60;57.70;;;;;;1505255;77;1162;-54
2022/10/19 05:07:27;;;;;;;;;;;23.60;57.70;;;;;;1491797;78;921;-56
2022/10/19 05:09:29;;;;;;;;;;;23.60;57.80;;;;;;1503812;77;745;-56
2022/10/19 05:11:31;;;;;;;;;;;23.70;57.90;;;;;;1507179;77;713;-58
2022/10/19 05:13:32;;;;;;;;;;;23.60;58.00;;;;;;1505183;77;1943;-57
2022/10/19 05:15:34;;;;;;;;;;;23.60;58.20;;;;;;1498132;77;1145;-58
2022/10/19 05:17:36;;;;;;;;;;;23.60;58.40;;;;;;1498463;77;1542;-57
2022/10/19 05:19:38;;;;;;;;;;;23.60;58.40;;;;;;1493696;77;1071;-57
2022/10/19 05:21:40;;;;;;;;;;;23.60;58.20;;;;;;1491813;78;713;-55
2022/10/19 05:23:42;;;;;;;;;;;23.70;57.90;;;;;;1483076;78;749;-55
2022/10/19 05:25:44;;;;;;;;;;;23.90;57.50;;;;;;1483885;78;1221;-58
2022/10/19 05:27:47;;;;;;;;;;;23.90;57.20;;;;;;1491303;78;721;-57
2022/10/19 05:29:49;;;;;;;;;;;24.00;56.90;;;;;;1490630;78;1668;-56
2022/10/19 05:31:51;;;;;;;;;;;24.00;56.80;;;;;;1494389;78;1595;-57
2022/10/19 05:33:54;;;;;;;;;;;24.00;56.80;;;;;;1493726;78;1949;-55
2022/10/19 05:35:56;;;;;;;;;;;24.00;56.80;;;;;;1490376;78;1171;-58
2022/10/19 05:37:58;;;;;;;;;;;24.00;56.80;;;;;;1477243;78;721;-56
2022/10/19 05:40:00;;;;;;;;;;;23.90;56.80;;;;;;1484508;79;718;-58
2022/10/19 05:42:02;;;;;;;;;;;23.90;56.80;;;;;;1484060;78;716;-58
2022/10/19 05:44:04;;;;;;;;;;;23.90;57.00;;;;;;1492686;78;777;-56
2022/10/19 05:46:07;;;;;;;;;;;23.80;57.20;;;;;;1486864;78;1654;-55
2022/10/19 05:48:09;;;;;;;;;;;23.90;57.20;;;;;;1475316;79;625;-58
2022/10/19 05:50:10;;;;;;;;;;;23.90;56.90;;;;;;1485739;78;755;-58
2022/10/19 05:52:12;;;;;;;;;;;23.90;56.80;;;;;;1493169;78;875;-55
2022/10/19 05:54:14;;;;;;;;;;;24.00;56.70;;;;;;1485409;78;1936;-58
2022/10/19 05:56:19;;;;;;;;;;;23.90;56.70;;;;;;1493336;79;1083;-58
2022/10/19 05:58:21;;;;;;;;;;;24.00;56.70;;;;;;1493235;78;739;-58
2022/10/19 06:00:23;;;;;;;;;;;23.90;56.60;;;;;;1481917;78;1557;-58
2022/10/19 06:02:25;;;;;;;;;;;23.90;56.80;;;;;;1491330;78;729;-58
2022/10/19 06:04:27;;;;;;;;;;;23.90;56.80;;;;;;1488610;78;807;-58
2022/10/19 06:06:29;;;;;;;;;;;23.90;56.80;;;;;;1488741;78;1097;-58
2022/10/19 06:08:31;;;;;;;;;;;23.90;57.00;;;;;;1484799;78;778;-58
2022/10/19 06:10:33;;;;;;;;;;;23.80;56.90;;;;;;1490534;78;788;-58
2022/10/19 06:12:35;;;;;;;;;;;23.70;57.00;;;;;;1489123;78;1934;-58
2022/10/19 06:14:37;;;;;;;;;;;23.70;57.10;;;;;;1487054;78;1528;-58
2022/10/19 06:16:39;;;;;;;;;;;23.70;57.10;;;;;;1479751;78;1145;-58
2022/10/19 06:18:41;;;;;;;;;;;23.70;57.10;;;;;;1483802;78;825;-58
2022/10/19 06:20:43;;;;;;;;;;;23.60;57.10;;;;;;1490397;77;1123;-58
2022/10/19 06:22:45;;;;;;;;;;;23.60;57.10;;;;;;1495685;78;753;-58
2022/10/19 06:24:47;;;;;;;;;;;23.70;57.10;;;;;;1511122;77;723;-57
2022/10/19 06:26:48;;;;;;;;;;;23.60;57.10;;;;;;1496194;77;1163;-59
2022/10/19 06:28:50;;;;;;;;;;;23.60;57.10;;;;;;1499182;78;1592;-58
2022/10/19 06:30:52;;;;;;;;;;;23.70;56.90;;;;;;1495659;77;865;-58
2022/10/19 06:32:54;;;;;;;;;;;23.70;56.50;;;;;;1501583;77;1937;-58
2022/10/19 06:34:56;;;;;;;;;;;23.70;56.40;;;;;;1506962;77;737;-58
2022/10/19 06:36:58;;;;;;;;;;;23.70;56.30;;;;;;1509054;78;1112;-58
2022/10/19 06:39:00;;;;;;;;;;;23.70;56.10;;;;;;1492977;77;769;-59
2022/10/19 06:41:02;;;;;;;;;;;23.70;56.00;;;;;;1501401;77;835;-58
2022/10/19 06:43:04;;;;;;;;;;;23.60;55.70;;;;;;1496573;79;1721;-58
2022/10/19 06:45:09;;;;;;;;;;;23.70;55.70;;;;;;1503784;77;1097;-58
2022/10/19 06:47:11;;;;;;;;;;;23.60;55.50;;;;;;1492374;77;906;-59
2022/10/19 06:49:13;;;;;;;;;;;23.60;55.50;;;;;;1499278;77;799;-59
2022/10/19 06:51:16;;;;;;;;;;;23.60;55.40;;;;;;1507360;77;656;-58
2022/10/19 06:53:18;;;;;;;;;;;23.50;55.20;;;;;;1499367;77;1922;-59
2022/10/19 06:55:20;;;;;;;;;;;23.50;55.30;;;;;;1516256;77;1147;-58
2022/10/19 06:57:22;;;;;;;;;;;23.50;55.30;;;;;;1502846;77;1560;-55
2022/10/19 06:59:24;;;;;;;;;;;23.60;55.30;;;;;;1497338;78;674;-55
2022/10/19 07:01:26;;;;;;;;;;;23.60;55.20;;;;;;1498204;77;723;-52
2022/10/19 07:03:28;;;;;;;;;;;23.60;55.20;;;;;;1505698;77;770;-55
2022/10/19 07:05:30;;;;;;;;;;;23.70;55.20;;;;;;1499694;77;1164;-54
2022/10/19 07:07:32;;;;;;;;;;;23.60;55.10;;;;;;1503210;77;674;-56
2022/10/19 07:09:34;;;;;;;;;;;23.60;55.00;;;;;;1506992;77;1294;-56
2022/10/19 07:11:36;;;;;;;;;;;23.60;55.00;;;;;;1504779;77;655;-55
2022/10/19 07:13:38;;;;;;;;;;;23.60;54.90;;;;;;1499379;77;1928;-55
2022/10/19 07:15:39;;;;;;;;;;;23.50;54.90;;;;;;1504042;78;1140;-55
2022/10/19 07:17:41;;;;;;;;;;;23.50;54.90;;;;;;1501048;77;665;-54
2022/10/19 07:19:43;;;;;;;;;;;23.50;54.80;;;;;;1501571;79;741;-53
2022/10/19 07:21:45;;;;;;;;;;;23.50;54.90;;;;;;1497549;77;1530;-55
2022/10/19 07:23:47;;;;;;;;;;;23.50;54.90;;;;;;1504412;77;1285;-55
2022/10/19 07:25:51;;;;;;;;;;;23.40;54.90;;;;;;1502613;79;1183;-55
2022/10/19 07:27:52;;;;;;;;;;;23.40;54.70;;;;;;1508034;78;1675;-55
2022/10/19 07:29:54;;;;;;;;;;;23.50;54.80;;;;;;1508612;78;755;-53
2022/10/19 07:31:56;;;;;;;;;;;23.40;54.60;;;;;;1494170;77;776;-55
2022/10/19 07:33:59;;;;;;;;;;;23.40;54.60;;;;;;1501448;79;1928;-56
2022/10/19 07:36:01;;;;;;;;;;;23.50;54.70;;;;;;1505361;77;1138;-56
2022/10/19 07:38:03;;;;;;;;;;;23.40;54.50;;;;;;1504672;77;1533;-56
2022/10/19 07:40:05;;;;;;;;;;;23.50;54.70;;;;;;1491877;77;738;-55
2022/10/19 07:42:07;;;;;;;;;;;23.40;54.50;;;;;;1501971;78;764;-56
2022/10/19 07:44:09;;;;;;;;;;;23.40;54.60;;;;;;1492146;77;720;-56
2022/10/19 07:46:12;;;;;;;;;;;23.30;54.60;;;;;;1492326;77;1137;-56
2022/10/19 07:48:14;;;;;;;;;;;23.30;54.40;;;;;;1498511;77;796;-56
2022/10/19 07:50:16;;;;;;;;;;;23.30;54.60;;;;;;1498945;77;745;-56
2022/10/19 07:52:18;;;;;;;;;;;23.40;54.50;;;;;;1510114;77;1512;-56
2022/10/19 07:54:21;;;;;;;;;;;23.40;54.50;;;;;;1500140;77;1935;-52
2022/10/19 07:56:23;;;;;;;;;;;23.40;54.30;;;;;;1498389;77;1184;-56
2022/10/19 07:58:25;;;;;;;;;;;23.40;54.40;;;;;;1503143;78;583;-56
2022/10/19 08:00:28;;;;;;;;;;;23.30;54.50;;;;;;1507667;77;730;-56
2022/10/19 08:02:30;;;;;;;;;;;23.40;54.50;;;;;;1493405;77;831;-56
2022/10/19 08:04:32;;;;;;;;;;;23.30;54.50;;;;;;1508122;77;742;-56
2022/10/19 08:06:35;;;;;;;;;;;23.40;54.40;;;;;;1504348;77;1607;-56
2022/10/19 08:08:37;;;;;;;;;;;23.50;54.50;;;;;;1503842;77;796;-57
2022/10/19 08:10:39;;;;;;;;;;;23.50;54.20;;;;;;1504611;77;731;-56
2022/10/19 08:12:41;;;;;;;;;;;23.50;54.20;;;;;;1502069;77;770;-56
2022/10/19 08:14:42;;;;;;;;;;;23.50;54.20;;;;;;1502275;77;1935;-56
2022/10/19 08:16:44;;;;;;;;;;;23.40;54.00;;;;;;1513486;77;1139;-56
2022/10/19 08:18:46;;;;;;;;;;;23.40;53.90;;;;;;1505907;77;875;-55
2022/10/19 08:20:48;;;;;;;;;;;23.30;54.10;;;;;;1506043;77;1572;-55
2022/10/19 08:22:50;;;;;;;;;;;23.30;54.20;;;;;;1497748;77;726;-52
2022/10/19 08:24:52;;;;;;;;;;;23.30;54.30;;;;;;1506365;77;844;-56
2022/10/19 08:26:54;;;;;;;;;;;23.20;54.20;;;;;;1504474;78;1176;-56
2022/10/19 08:29:01;;;;;;;;;;;23.20;54.30;;;;;;1498321;77;746;-52
2022/10/19 08:31:16;;;;;;;;;;;23.20;54.20;;;;;;1508254;77;1814;-57
2022/10/19 08:33:17;;;;;;;;;;;23.10;54.20;;;;;;1501683;77;868;-56
2022/10/19 08:35:19;;;;;;;;;;;23.20;54.20;;;;;;1513167;77;1943;-54
2022/10/19 08:37:21;;;;;;;;;;;23.20;54.20;;;;;;1503146;77;750;-53
2022/10/19 08:39:23;;;;;;;;;;;23.20;53.90;;;;;;1497176;77;764;-57
2022/10/19 08:41:33;;;;;;;;;;;23.00;54.10;;;;;;1507226;77;761;-57
2022/10/19 08:43:36;;;;;;;;;;;23.00;54.10;;;;;;1509699;77;705;-56
2022/10/19 08:45:42;;;;;;;;;;;23.00;54.30;;;;;;1503405;77;1249;-57
2022/10/19 08:48:01;;;;;;;;;;;22.90;54.00;;;;;;1495693;77;768;-57
2022/10/19 08:50:05;;;;;;;;;;;22.80;54.70;;;;;;1516122;77;739;-56
2022/10/19 08:52:08;;;;;;;;;;;22.70;54.40;;;;;;1499565;77;2144;-55
2022/10/19 08:54:12;;;;;;;;;;;22.70;54.80;;;;;;1505258;77;1919;-57
2022/10/19 08:56:21;;;;;;;;;;;22.70;54.90;;;;;;1503981;77;2193;-57
2022/10/19 08:58:27;;;;;;;;;;;22.60;54.70;;;;;;1499020;77;733;-56
2022/10/19 09:00:31;;;;;;;;;;;22.70;55.00;;;;;;1509024;77;713;-52
2022/10/19 09:02:41;;;;;;;;;;;22.70;54.90;;;;;;1501504;77;2003;-57
2022/10/19 09:04:44;;;;;;;;;;;22.80;54.90;;;;;;1502301;77;702;-57
2022/10/19 09:06:51;;;;;;;;;;;22.80;54.70;;;;;;1502802;77;1858;-57
2022/10/19 09:08:53;;;;;;;;;;;22.80;54.70;;;;;;1504939;77;788;-57
2022/10/19 09:10:56;;;;;;;;;;;22.70;54.20;;;;;;1502411;77;736;-60
2022/10/19 09:12:58;;;;;;;;;;;22.60;54.70;;;;;;1505910;78;991;-53
2022/10/19 09:15:04;;;;;;;;;;;22.50;54.10;;;;;;1508004;77;1940;-57
2022/10/19 09:17:07;;;;;;;;;;;22.40;54.50;;;;;;1507954;77;1582;-57
2022/10/19 09:19:11;;;;;;;;;;;22.30;54.70;;;;;;1497607;78;1708;-57
2022/10/19 09:21:24;;;;;;;;;;;22.30;55.20;;;;;;1499065;77;1116;-56
2022/10/19 09:23:27;;;;;;;;;;;22.20;54.90;;;;;;1497001;77;1139;-58
2022/10/19 09:25:29;;;;;;;;;;;22.30;55.50;;;;;;1514190;77;2080;-58
2022/10/19 09:27:35;;;;;;;;;;;22.30;55.20;;;;;;1506351;77;768;-59
2022/10/19 09:29:42;;;;;;;;;;;22.20;55.00;;;;;;1504990;79;698;-58
2022/10/19 09:31:44;;;;;;;;;;;22.20;55.20;;;;;;1503143;77;1469;-55
2022/10/19 09:33:47;;;;;;;;;;;22.30;55.30;;;;;;1503950;77;1949;-57
2022/10/19 09:35:49;;;;;;;;;;;22.20;55.10;;;;;;1492190;77;1152;-56
2022/10/19 09:37:51;;;;;;;;;;;22.30;55.00;;;;;;1502298;77;776;-54
2022/10/19 09:39:53;;;;;;;;;;;22.20;55.20;;;;;;1504099;78;707;-57
2022/10/19 09:41:56;;;;;;;;;;;22.10;54.30;;;;;;1502481;77;796;-57
2022/10/19 09:43:58;;;;;;;;;;;22.00;55.20;;;;;;1510152;77;711;-58
2022/10/19 09:46:07;;;;;;;;;;;21.90;55.20;;;;;;1501802;77;1513;-58
2022/10/19 09:48:14;;;;;;;;;;;21.90;55.70;;;;;;1509446;77;1750;-57
2022/10/19 09:50:18;;;;;;;;;;;21.70;56.00;;;;;;1500978;78;1827;-56
2022/10/19 09:52:23;;;;;;;;;;;21.80;56.00;;;;;;1505932;77;728;-55
2022/10/19 09:54:27;;;;;;;;;;;21.80;55.70;;;;;;1515108;77;1914;-58
2022/10/19 09:56:28;;;;;;;;;;;21.90;55.90;;;;;;1502268;77;1140;-57
2022/10/19 09:58:30;;;;;;;;;;;21.90;56.00;;;;;;1496703;77;1576;-58
2022/10/19 10:00:36;;;;;;;;;;;21.90;55.30;;;;;;1507262;77;808;-56
2022/10/19 10:02:38;;;;;;;;;;;21.90;55.20;;;;;;1499950;78;809;-58
2022/10/19 10:04:40;;;;;;;;;;;21.70;54.90;;;;;;1486775;77;771;-58
2022/10/19 10:06:42;;;;;;;;;;;21.60;55.20;;;;;;1498077;77;1146;-56
2022/10/19 10:08:48;;;;;;;;;;;21.50;55.10;;;;;;1509034;77;794;-58
2022/10/19 10:10:54;;;;;;;;;;;21.50;55.20;;;;;;1493087;78;669;-58
2022/10/19 10:12:58;;;;;;;;;;;21.40;55.00;;;;;;1496776;77;1774;-58
2022/10/19 10:15:00;;;;;;;;;;;21.50;56.00;;;;;;1504076;77;1959;-58
2022/10/19 10:17:02;;;;;;;;;;;21.50;55.20;;;;;;1489251;78;1126;-58
2022/10/19 10:19:08;;;;;;;;;;;21.50;55.70;;;;;;1525712;76;607;-58
2022/10/19 10:21:11;;;;;;;;;;;21.50;55.30;;;;;;1569005;74;799;-58
2022/10/19 10:23:15;;;;;;;;;;;21.50;55.60;;;;;;1564708;74;1119;-58
2022/10/19 10:25:17;;;;;;;;;;;21.50;55.60;;;;;;1551252;74;1753;-58
2022/10/19 10:27:32;;;;;;;;;;;21.50;55.00;;;;;;1567832;74;1643;-58
2022/10/19 10:29:35;;;;;;;;;;;21.60;55.50;;;;;;1554745;74;730;-58
2022/10/19 10:31:37;;;;;;;;;;;21.70;55.50;;;;;;1577222;74;758;-58
2022/10/19 10:33:38;;;;;;;;;;;21.70;54.80;;;;;;1553912;74;729;-58
2022/10/19 10:35:40;;;;;;;;;;;21.70;55.20;;;;;;1569276;74;1950;-58
2022/10/19 10:37:43;;;;;;;;;;;21.70;55.20;;;;;;1534905;76;774;-58
2022/10/19 10:39:45;;;;;;;;;;;21.70;55.20;;;;;;1525951;77;763;-58
2022/10/19 10:41:47;;;;;;;;;;;21.80;55.10;;;;;;1530973;76;1534;-58
2022/10/19 10:43:55;;;;;;;;;;;21.80;55.10;;;;;;1538322;76;735;-58
2022/10/19 10:45:59;;;;;;;;;;;21.90;55.10;;;;;;1533315;76;1158;-58
2022/10/19 10:48:02;;;;;;;;;;;22.00;55.00;;;;;;1527125;76;1520;-58
2022/10/19 10:50:05;;;;;;;;;;;22.00;55.00;;;;;;1528423;76;1812;-56
2022/10/19 10:52:07;;;;;;;;;;;21.90;55.00;;;;;;1529064;76;744;-58
2022/10/19 10:54:17;;;;;;;;;;;21.90;55.30;;;;;;1524246;76;898;-58
2022/10/19 10:56:23;;;;;;;;;;;21.80;55.20;;;;;;1533741;76;1605;-58
2022/10/19 10:58:39;;;;;;;;;;;21.90;55.30;;;;;;1531339;76;1772;-58
2022/10/19 11:00:41;;;;;;;;;;;21.90;55.20;;;;;;1521200;76;1865;-60
2022/10/19 11:02:47;;;;;;;;;;;21.90;55.20;;;;;;1528558;76;808;-57
2022/10/19 11:04:51;;;;;;;;;;;22.00;55.10;;;;;;1527237;76;799;-58
2022/10/19 11:06:57;;;;;;;;;;;21.90;55.10;;;;;;1528169;76;1122;-57
2022/10/19 11:09:07;;;;;;;;;;;22.00;55.30;;;;;;1566684;74;1569;-57
2022/10/19 11:11:12;;;;;;;;;;;21.90;55.50;;;;;;1566794;74;786;-58
2022/10/19 11:13:15;;;;;;;;;;;21.90;55.80;;;;;;1562325;74;2049;-58
2022/10/19 11:15:18;;;;;;;;;;;22.00;56.20;;;;;;1567166;74;1928;-58
2022/10/19 11:17:21;;;;;;;;;;;21.90;56.40;;;;;;1564537;74;703;-58
2022/10/19 11:19:24;;;;;;;;;;;21.90;56.60;;;;;;1561102;74;726;-58
2022/10/19 11:21:42;;;;;;;;;;;21.90;56.70;;;;;;1567605;74;717;-58
2022/10/19 11:23:46;;;;;;;;;;;21.90;56.90;;;;;;1559811;75;1498;-58
2022/10/19 11:25:50;;;;;;;;;;;21.90;56.80;;;;;;1550555;75;1189;-59
2022/10/19 11:28:05;;;;;;;;;;;21.90;56.90;;;;;;1554652;75;1893;-57
2022/10/19 11:30:13;;;;;;;;;;;21.90;56.80;;;;;;1551519;75;1922;-58
2022/10/19 11:32:26;;;;;;;;;;;21.90;56.80;;;;;;1556777;75;794;-58
2022/10/19 11:34:45;;;;;;;;;;;22.00;56.90;;;;;;1553044;75;1938;-58
2022/10/19 11:36:48;;;;;;;;;;;22.00;57.00;;;;;;1552134;75;1471;-59
2022/10/19 11:39:07;;;;;;;;;;;22.10;56.90;;;;;;1553190;75;1929;-58
2022/10/19 11:41:29;;;;;;;;;;;22.10;57.00;;;;;;1555972;75;1858;-59
2022/10/19 11:43:32;;;;;;;;;;;22.20;56.80;;;;;;1555089;75;729;-58
2022/10/19 11:45:53;;;;;;;;;;;22.20;56.80;;;;;;1554222;75;1934;-62
2022/10/19 11:47:59;;;;;;;;;;;22.20;56.80;;;;;;1555431;75;743;-60
2022/10/19 11:50:21;;;;;;;;;;;22.30;56.80;;;;;;1556956;75;779;-59
2022/10/19 11:52:27;;;;;;;;;;;22.30;56.60;;;;;;1559020;75;1981;-59
2022/10/19 11:54:33;;;;;;;;;;;22.50;56.40;;;;;;1551091;75;722;-59
2022/10/19 11:56:37;;;;;;;;;;;22.40;56.30;;;;;;1552849;75;1118;-60
2022/10/19 11:58:47;;;;;;;;;;;22.40;56.30;;;;;;1554732;75;818;-58
2022/10/19 12:00:50;;;;;;;;;;;22.50;56.30;;;;;;1557933;75;643;-60
2022/10/19 12:03:06;;;;;;;;;;;22.60;56.00;;;;;;1522973;75;1018;-59
2022/10/19 12:05:13;;;;;;;;;;;22.60;56.00;;;;;;1551793;75;1329;-59
2022/10/19 12:07:33;;;;;;;;;;;22.60;56.50;;;;;;1562493;75;1776;-58
2022/10/19 12:09:42;;;;;;;;;;;22.50;56.80;;;;;;1555635;75;645;-58
2022/10/19 12:11:46;;;;;;;;;;;22.60;56.70;;;;;;1558724;75;764;-57
2022/10/19 12:13:49;;;;;;;;;;;22.70;56.60;;;;;;1560030;75;649;-56
2022/10/19 12:15:52;;;;;;;;;;;22.70;56.50;;;;;;1559259;75;1927;-56